Time;durP1;ratioP1;P1;durP2;ratioP2;P2;SDS_P1;SDS_P2;PMS_P1;PMS_P2;Temp;Humidity;BMP_temperature;BMP_pressure;BME280_temperature;BME280_humidity;BME280_pressure;Samples;Min_cycle;Max_cycle;Signal;HPM_P1;HPM_P2
2020/12/11 00:01:00;;;;;;;24.87;11.10;;;1.60;99.90;;;;;;4190491;28;20472;-57
2020/12/11 00:03:01;;;;;;;23.70;11.47;;;1.60;99.90;;;;;;4189858;28;20480;-57
2020/12/11 00:05:03;;;;;;;22.67;10.43;;;1.60;99.90;;;;;;4191047;28;20498;-57
2020/12/11 00:07:04;;;;;;;21.60;10.33;;;1.60;99.90;;;;;;4192002;28;20476;-57
2020/12/11 00:09:05;;;;;;;22.00;10.30;;;1.60;99.90;;;;;;4190916;28;20488;-57
2020/12/11 00:11:07;;;;;;;22.27;10.90;;;1.60;99.90;;;;;;4189331;28;20474;-57
2020/12/11 00:13:09;;;;;;;22.77;10.43;;;1.60;99.90;;;;;;4191599;28;20857;-57
2020/12/11 00:15:10;;;;;;;23.03;10.10;;;1.60;99.90;;;;;;4190299;28;20538;-60
2020/12/11 00:17:12;;;;;;;22.03;10.40;;;1.60;99.90;;;;;;4191002;28;21304;-57
2020/12/11 00:19:13;;;;;;;22.23;10.60;;;1.60;99.90;;;;;;4187687;28;20485;-57
2020/12/11 00:21:14;;;;;;;24.23;10.37;;;1.60;99.90;;;;;;4188911;28;20482;-57
2020/12/11 00:23:16;;;;;;;23.03;10.83;;;1.60;99.90;;;;;;4188816;28;20548;-57
2020/12/11 00:25:17;;;;;;;24.13;11.13;;;1.60;99.90;;;;;;4190798;28;20873;-57
2020/12/11 00:27:19;;;;;;;18.90;10.17;;;1.60;99.90;;;;;;4190883;28;20480;-58
2020/12/11 00:29:21;;;;;;;23.30;10.63;;;1.60;99.90;;;;;;4189211;28;20486;-57
2020/12/11 00:31:24;;;;;;;22.00;10.67;;;1.60;99.90;;;;;;4190783;28;20967;-57
2020/12/11 00:33:26;;;;;;;19.93;10.23;;;1.60;99.90;;;;;;4189906;28;20579;-57
2020/12/11 00:35:27;;;;;;;23.03;10.90;;;1.70;99.90;;;;;;4191065;28;20466;-57
2020/12/11 00:37:29;;;;;;;23.10;11.03;;;1.70;99.90;;;;;;4192139;28;20478;-56
2020/12/11 00:39:30;;;;;;;25.97;10.47;;;1.70;99.90;;;;;;4188481;28;20517;-57
2020/12/11 00:41:31;;;;;;;21.63;10.83;;;1.70;99.90;;;;;;4189717;28;20951;-57
2020/12/11 00:43:33;;;;;;;22.77;11.13;;;1.70;99.90;;;;;;4190284;28;20462;-57
2020/12/11 00:45:36;;;;;;;24.87;11.30;;;1.70;99.90;;;;;;4189388;28;20906;-57
2020/12/11 00:47:37;;;;;;;22.30;10.47;;;1.70;99.90;;;;;;4191283;28;20473;-57
2020/12/11 00:49:38;;;;;;;23.03;10.77;;;1.70;99.90;;;;;;4192431;28;20786;-57
2020/12/11 00:51:40;;;;;;;23.93;10.83;;;1.70;99.90;;;;;;4186665;28;20579;-57
2020/12/11 00:53:41;;;;;;;23.93;10.53;;;1.70;99.90;;;;;;4189228;28;20487;-58
2020/12/11 00:55:42;;;;;;;22.57;10.97;;;1.70;99.90;;;;;;4188995;28;20462;-57
2020/12/11 00:57:44;;;;;;;25.37;10.77;;;1.70;99.90;;;;;;4189435;28;20483;-58
2020/12/11 00:59:45;;;;;;;27.13;11.97;;;1.70;99.90;;;;;;4190058;28;20959;-58
2020/12/11 01:01:47;;;;;;;23.40;11.73;;;1.70;99.90;;;;;;4189553;28;20479;-56
2020/12/11 01:03:49;;;;;;;25.53;11.57;;;1.70;99.90;;;;;;4189271;28;20996;-57
2020/12/11 01:05:50;;;;;;;26.80;12.17;;;1.70;99.90;;;;;;4190770;28;20492;-57
2020/12/11 01:07:51;;;;;;;26.43;12.00;;;1.70;99.90;;;;;;4189099;28;20481;-57
2020/12/11 01:09:53;;;;;;;25.73;11.73;;;1.70;99.90;;;;;;4188724;28;20474;-57
2020/12/11 01:11:54;;;;;;;24.97;12.10;;;1.70;99.90;;;;;;4188786;28;20474;-56
2020/12/11 01:13:55;;;;;;;25.53;11.23;;;1.70;99.90;;;;;;4190414;28;20477;-57
2020/12/11 01:15:56;;;;;;;24.20;11.47;;;1.70;99.90;;;;;;4189124;28;20498;-57
2020/12/11 01:17:59;;;;;;;26.93;12.33;;;1.70;99.90;;;;;;4188293;28;20836;-57
2020/12/11 01:20:00;;;;;;;24.20;11.40;;;1.70;99.90;;;;;;4190457;28;20493;-57
2020/12/11 01:22:04;;;;;;;24.33;11.57;;;1.70;99.90;;;;;;4187022;28;20489;-57
2020/12/11 01:24:05;;;;;;;25.27;11.77;;;1.70;99.90;;;;;;4191067;28;22017;-57
2020/12/11 01:26:08;;;;;;;24.73;11.27;;;1.70;99.90;;;;;;4189405;28;20498;-57
2020/12/11 01:28:09;;;;;;;26.67;11.80;;;1.80;99.90;;;;;;4189223;28;20466;-57
2020/12/11 01:30:11;;;;;;;27.73;12.10;;;1.70;99.90;;;;;;4189949;28;20472;-57
2020/12/11 01:32:12;;;;;;;24.67;11.60;;;1.70;99.90;;;;;;4187811;28;20492;-57
2020/12/11 01:34:15;;;;;;;27.83;12.93;;;1.70;99.90;;;;;;4189311;28;21149;-56
2020/12/11 01:36:24;;;;;;;26.27;12.13;;;1.70;99.90;;;;;;4188327;28;21225;-57
2020/12/11 01:38:25;;;;;;;27.10;12.13;;;1.70;99.90;;;;;;4188063;28;20477;-57
2020/12/11 01:40:26;;;;;;;27.63;12.47;;;1.70;99.90;;;;;;4188925;28;20478;-57
2020/12/11 01:42:27;;;;;;;28.03;13.47;;;1.70;99.90;;;;;;4190318;28;20483;-57
2020/12/11 01:44:29;;;;;;;26.23;12.67;;;1.70;99.90;;;;;;4187831;28;20485;-57
2020/12/11 01:46:36;;;;;;;24.30;11.50;;;1.70;99.90;;;;;;4189173;28;20992;-57
2020/12/11 01:48:38;;;;;;;23.63;12.17;;;1.70;99.90;;;;;;4188233;28;20470;-57
2020/12/11 01:50:40;;;;;;;25.40;11.63;;;1.70;99.90;;;;;;4189070;28;20487;-57
2020/12/11 01:52:41;;;;;;;27.70;12.70;;;1.70;99.90;;;;;;4190315;28;20479;-58
2020/12/11 01:54:43;;;;;;;26.23;12.43;;;1.70;99.90;;;;;;4190430;28;20477;-57
2020/12/11 01:56:51;;;;;;;28.93;12.33;;;1.70;99.90;;;;;;4190888;28;20486;-57
2020/12/11 01:59:00;;;;;;;25.90;12.13;;;1.70;99.90;;;;;;4190853;28;20496;-58
2020/12/11 02:01:02;;;;;;;27.20;12.47;;;1.70;99.90;;;;;;4189163;28;20481;-57
2020/12/11 02:03:06;;;;;;;25.23;12.07;;;1.70;99.90;;;;;;4190615;28;20497;-58
2020/12/11 02:05:08;;;;;;;28.00;11.97;;;1.60;99.90;;;;;;4192094;28;20505;-58
2020/12/11 02:07:10;;;;;;;27.40;12.70;;;1.70;99.90;;;;;;4191752;28;20490;-57
2020/12/11 02:09:12;;;;;;;28.23;11.87;;;1.70;99.90;;;;;;4188705;28;20468;-57
2020/12/11 02:11:18;;;;;;;27.00;12.80;;;1.70;99.90;;;;;;4190043;28;21014;-57
2020/12/11 02:13:19;;;;;;;27.20;12.63;;;1.70;99.90;;;;;;4189687;28;20485;-57
2020/12/11 02:15:20;;;;;;;28.03;13.07;;;1.70;99.90;;;;;;4191441;28;20508;-57
2020/12/11 02:17:26;;;;;;;27.30;13.07;;;1.70;99.90;;;;;;4189393;28;20476;-57
2020/12/11 02:19:30;;;;;;;25.17;11.93;;;1.70;99.90;;;;;;4188943;28;20484;-58
2020/12/11 02:21:32;;;;;;;25.43;11.83;;;1.70;99.90;;;;;;4190595;28;20505;-57
2020/12/11 02:23:33;;;;;;;25.57;12.27;;;1.70;99.90;;;;;;4187635;28;20481;-57
2020/12/11 02:25:35;;;;;;;24.93;11.97;;;1.70;99.90;;;;;;4190766;28;20486;-57
2020/12/11 02:27:38;;;;;;;25.93;12.30;;;1.70;99.90;;;;;;4191636;28;20477;-57
2020/12/11 02:29:39;;;;;;;25.83;11.83;;;1.70;99.90;;;;;;4191177;28;20973;-57
2020/12/11 02:31:40;;;;;;;27.40;12.60;;;1.70;99.90;;;;;;4189237;28;20467;-57
2020/12/11 02:33:44;;;;;;;28.17;12.80;;;1.70;99.90;;;;;;4189210;28;20922;-57
2020/12/11 02:35:45;;;;;;;27.07;12.77;;;1.80;99.90;;;;;;4189823;28;20475;-57
2020/12/11 02:37:47;;;;;;;26.33;12.33;;;1.80;99.90;;;;;;4189584;28;20498;-57
2020/12/11 02:39:48;;;;;;;26.70;12.57;;;1.80;99.90;;;;;;4189140;28;20927;-58
2020/12/11 02:41:50;;;;;;;27.03;11.83;;;1.80;99.90;;;;;;4190548;28;21092;-60
2020/12/11 02:43:51;;;;;;;28.30;12.80;;;1.80;99.90;;;;;;4194209;28;20513;-57
2020/12/11 02:45:53;;;;;;;28.50;12.87;;;1.80;99.90;;;;;;4191164;28;20500;-57
2020/12/11 02:47:54;;;;;;;27.90;12.87;;;1.80;99.90;;;;;;4194505;28;20472;-57
2020/12/11 02:49:55;;;;;;;26.67;12.40;;;1.80;99.90;;;;;;4197859;28;20953;-57
2020/12/11 02:51:56;;;;;;;26.53;12.07;;;1.80;99.90;;;;;;4192418;28;20473;-57
2020/12/11 02:53:59;;;;;;;28.03;12.50;;;1.80;99.90;;;;;;4192785;28;20483;-57
2020/12/11 02:56:00;;;;;;;26.67;12.20;;;1.80;99.90;;;;;;4191502;28;20477;-57
2020/12/11 02:58:01;;;;;;;28.50;12.83;;;1.80;99.90;;;;;;4192282;28;20470;-57
2020/12/11 03:00:03;;;;;;;25.93;11.73;;;1.70;99.90;;;;;;4191246;28;20476;-57
2020/12/11 03:02:04;;;;;;;27.67;12.90;;;1.70;99.90;;;;;;4192324;28;20501;-57
2020/12/11 03:04:06;;;;;;;26.33;11.07;;;1.70;99.90;;;;;;4191314;28;20503;-57
2020/12/11 03:06:07;;;;;;;26.07;12.60;;;1.70;99.90;;;;;;4192417;28;20491;-59
2020/12/11 03:08:08;;;;;;;22.23;11.10;;;1.80;99.90;;;;;;4193218;28;20961;-57
2020/12/11 03:10:11;;;;;;;25.07;11.97;;;1.70;99.90;;;;;;4192920;28;20491;-57
2020/12/11 03:12:12;;;;;;;21.93;11.27;;;1.70;99.90;;;;;;4190586;28;20472;-57
2020/12/11 03:14:13;;;;;;;26.60;12.20;;;1.70;99.90;;;;;;4190774;28;20512;-57
2020/12/11 03:16:16;;;;;;;21.33;10.60;;;1.70;99.90;;;;;;4192063;28;20478;-57
2020/12/11 03:18:18;;;;;;;23.73;11.50;;;1.70;99.90;;;;;;4191157;28;20479;-57
2020/12/11 03:20:22;;;;;;;24.80;11.73;;;1.70;99.90;;;;;;4191329;28;20481;-58
2020/12/11 03:22:24;;;;;;;22.73;10.90;;;1.70;99.90;;;;;;4191624;28;20509;-57
2020/12/11 03:24:25;;;;;;;24.77;12.43;;;1.70;99.90;;;;;;4191877;28;20473;-57
2020/12/11 03:26:27;;;;;;;26.60;11.93;;;1.70;99.90;;;;;;4190603;28;20485;-57
2020/12/11 03:28:29;;;;;;;23.10;11.53;;;1.70;99.90;;;;;;4190826;28;20477;-57
2020/12/11 03:30:30;;;;;;;24.27;12.37;;;1.70;99.90;;;;;;4193006;28;20476;-57
2020/12/11 03:32:31;;;;;;;26.80;11.67;;;1.70;99.90;;;;;;4193452;28;20472;-57
2020/12/11 03:34:32;;;;;;;25.37;12.40;;;1.70;99.90;;;;;;4190965;28;20486;-57
2020/12/11 03:36:34;;;;;;;28.23;12.77;;;1.70;99.90;;;;;;4194218;28;20994;-57
2020/12/11 03:38:35;;;;;;;28.27;12.93;;;1.70;99.90;;;;;;4190736;28;20478;-57
2020/12/11 03:40:36;;;;;;;25.43;12.10;;;1.70;99.90;;;;;;4192907;28;20470;-57
2020/12/11 03:42:38;;;;;;;26.90;11.87;;;1.70;99.90;;;;;;4194450;28;20960;-57
2020/12/11 03:44:40;;;;;;;25.97;12.53;;;1.70;99.90;;;;;;4190400;28;20485;-57
2020/12/11 03:46:41;;;;;;;28.60;12.80;;;1.70;99.90;;;;;;4191987;28;20497;-57
2020/12/11 03:48:42;;;;;;;26.23;12.53;;;1.80;99.90;;;;;;4191733;28;20474;-57
2020/12/11 03:50:44;;;;;;;25.97;12.23;;;1.80;99.90;;;;;;4192963;28;21224;-57
2020/12/11 03:52:45;;;;;;;26.33;12.53;;;1.80;99.90;;;;;;4191404;28;20489;-57
2020/12/11 03:54:46;;;;;;;26.40;12.33;;;1.80;99.90;;;;;;4193166;28;20464;-57
2020/12/11 03:56:48;;;;;;;26.37;12.97;;;1.80;99.90;;;;;;4193226;28;20477;-57
2020/12/11 03:58:50;;;;;;;28.73;13.43;;;1.80;99.90;;;;;;4190816;28;22241;-57
2020/12/11 04:00:51;;;;;;;24.83;12.07;;;1.80;99.90;;;;;;4195590;28;20936;-57
2020/12/11 04:02:53;;;;;;;28.50;12.90;;;1.80;99.90;;;;;;4190405;28;20523;-57
2020/12/11 04:04:54;;;;;;;26.70;12.40;;;1.80;99.90;;;;;;4191554;28;20480;-57
2020/12/11 04:06:55;;;;;;;28.03;12.67;;;1.80;99.90;;;;;;4191882;28;21143;-58
2020/12/11 04:08:56;;;;;;;27.20;12.80;;;1.80;99.90;;;;;;4192248;28;20481;-57
2020/12/11 04:10:58;;;;;;;25.83;12.37;;;1.80;99.90;;;;;;4191929;28;20468;-57
2020/12/11 04:12:59;;;;;;;23.73;11.67;;;1.80;99.90;;;;;;4192077;28;22024;-57
2020/12/11 04:15:01;;;;;;;22.53;11.57;;;1.80;99.90;;;;;;4192287;28;20472;-57
2020/12/11 04:17:03;;;;;;;26.57;12.50;;;1.80;99.90;;;;;;4191387;28;21001;-57
2020/12/11 04:19:04;;;;;;;24.83;12.03;;;1.80;99.90;;;;;;4194651;28;20472;-58
2020/12/11 04:21:09;;;;;;;25.00;12.00;;;1.80;99.90;;;;;;4189587;28;20481;-57
2020/12/11 04:23:10;;;;;;;23.77;11.27;;;1.80;99.90;;;;;;4191618;28;20937;-57
2020/12/11 04:25:12;;;;;;;24.97;12.13;;;1.80;99.90;;;;;;4191024;28;20482;-57
2020/12/11 04:27:13;;;;;;;22.90;11.97;;;1.80;99.90;;;;;;4190976;28;20471;-57
2020/12/11 04:29:14;;;;;;;26.00;12.87;;;1.90;99.90;;;;;;4191900;28;20490;-57
2020/12/11 04:31:20;;;;;;;25.37;12.10;;;1.90;99.90;;;;;;4192400;28;20469;-57
2020/12/11 04:33:21;;;;;;;28.63;13.00;;;1.90;99.90;;;;;;4192575;28;20466;-57
2020/12/11 04:35:22;;;;;;;25.40;12.23;;;1.90;99.90;;;;;;4190671;28;21040;-57
2020/12/11 04:37:23;;;;;;;26.70;12.80;;;1.90;99.90;;;;;;4191707;28;20482;-57
2020/12/11 04:39:25;;;;;;;25.47;12.70;;;1.90;99.90;;;;;;4190642;28;20503;-57
2020/12/11 04:41:29;;;;;;;23.87;12.17;;;1.90;99.90;;;;;;4192189;28;20461;-57
2020/12/11 04:43:30;;;;;;;25.43;11.90;;;1.90;99.90;;;;;;4191866;28;21199;-57
2020/12/11 04:45:32;;;;;;;24.20;12.67;;;1.90;99.90;;;;;;4189701;28;20515;-57
2020/12/11 04:47:34;;;;;;;23.63;11.70;;;1.90;99.90;;;;;;4190525;28;20471;-57
2020/12/11 04:49:36;;;;;;;25.83;12.00;;;1.90;99.90;;;;;;4192852;28;20479;-57
2020/12/11 04:51:47;;;;;;;24.50;12.03;;;1.90;99.90;;;;;;4193108;28;20473;-56
2020/12/11 04:53:52;;;;;;;26.73;12.50;;;1.90;99.90;;;;;;4190183;28;20484;-57
2020/12/11 04:55:57;;;;;;;24.00;12.20;;;1.90;99.90;;;;;;4192252;28;20476;-57
2020/12/11 04:58:02;;;;;;;22.50;10.93;;;1.90;99.90;;;;;;4189551;28;20517;-56
2020/12/11 05:00:03;;;;;;;23.17;11.50;;;1.90;99.90;;;;;;4191020;28;20475;-57
2020/12/11 05:02:12;;;;;;;21.40;11.27;;;1.90;99.90;;;;;;4191181;28;20940;-56
2020/12/11 05:04:14;;;;;;;25.67;12.20;;;1.90;99.90;;;;;;4191291;28;20514;-57
2020/12/11 05:06:16;;;;;;;24.70;11.63;;;1.90;99.90;;;;;;4191513;28;20553;-57
2020/12/11 05:08:21;;;;;;;21.73;11.53;;;1.90;99.90;;;;;;4189545;28;20964;-57
2020/12/11 05:10:22;;;;;;;23.47;11.53;;;1.90;99.90;;;;;;4189516;28;20952;-57
2020/12/11 05:12:24;;;;;;;22.27;10.70;;;1.90;99.90;;;;;;4191063;28;20487;-57
2020/12/11 05:14:27;;;;;;;24.27;11.83;;;1.90;99.90;;;;;;4190160;28;20466;-57
2020/12/11 05:16:28;;;;;;;26.47;13.03;;;1.90;99.90;;;;;;4190107;28;20477;-57
2020/12/11 05:18:29;;;;;;;23.03;11.80;;;1.90;99.90;;;;;;4189377;28;20810;-57
2020/12/11 05:20:32;;;;;;;23.23;11.60;;;1.90;99.90;;;;;;4188263;28;20508;-57
2020/12/11 05:22:35;;;;;;;24.63;12.60;;;1.90;99.90;;;;;;4189870;28;20489;-58
2020/12/11 05:24:42;;;;;;;25.37;12.47;;;1.90;99.90;;;;;;4186636;28;20474;-57
2020/12/11 05:26:44;;;;;;;24.83;12.23;;;1.90;99.90;;;;;;4189666;28;20549;-58
2020/12/11 05:28:46;;;;;;;23.63;11.37;;;1.90;99.90;;;;;;4188471;28;20484;-57
2020/12/11 05:30:47;;;;;;;20.80;11.33;;;1.90;99.90;;;;;;4188675;28;20954;-57
2020/12/11 05:32:50;;;;;;;23.20;11.13;;;1.90;99.90;;;;;;4188929;28;20510;-57
2020/12/11 05:34:51;;;;;;;23.30;11.57;;;1.90;99.90;;;;;;4190054;28;20481;-57
2020/12/11 05:36:54;;;;;;;21.53;11.90;;;1.90;99.90;;;;;;4189140;28;20693;-57
2020/12/11 05:38:56;;;;;;;26.60;12.00;;;1.90;99.90;;;;;;4188677;28;20537;-58
2020/12/11 05:40:57;;;;;;;23.67;11.40;;;1.90;99.90;;;;;;4188404;28;20469;-57
2020/12/11 05:43:11;;;;;;;23.60;11.73;;;1.90;99.90;;;;;;4190177;28;20485;-58
2020/12/11 05:45:21;;;;;;;22.03;11.77;;;1.90;99.90;;;;;;4189553;28;20602;-56
2020/12/11 05:47:24;;;;;;;21.87;11.67;;;1.90;99.90;;;;;;4187745;28;20466;-56
2020/12/11 05:49:27;;;;;;;23.50;11.80;;;1.90;99.90;;;;;;4186881;28;20480;-57
2020/12/11 05:51:35;;;;;;;20.17;11.63;;;1.90;99.90;;;;;;4189714;28;20512;-57
2020/12/11 05:53:38;;;;;;;25.10;11.67;;;1.90;99.90;;;;;;4189883;28;20734;-57
2020/12/11 05:55:40;;;;;;;20.53;10.93;;;1.90;99.90;;;;;;4187352;28;20502;-56
2020/12/11 05:57:42;;;;;;;21.77;11.47;;;1.90;99.90;;;;;;4189575;28;20483;-57
2020/12/11 05:59:44;;;;;;;22.90;11.00;;;1.90;99.90;;;;;;4187503;28;20498;-57
2020/12/11 06:01:46;;;;;;;21.83;10.73;;;1.90;99.90;;;;;;4188778;28;20479;-56
2020/12/11 06:03:50;;;;;;;18.93;10.30;;;1.80;99.90;;;;;;4190228;28;20476;-58
2020/12/11 06:05:57;;;;;;;15.93;8.80;;;1.80;99.90;;;;;;4189829;28;20507;-56
2020/12/11 06:08:01;;;;;;;17.43;9.53;;;1.80;99.90;;;;;;4190929;28;20502;-56
2020/12/11 06:10:04;;;;;;;17.77;9.20;;;1.80;99.90;;;;;;4189730;28;20474;-57
2020/12/11 06:12:07;;;;;;;17.17;8.87;;;1.80;99.90;;;;;;4189721;28;21063;-57
2020/12/11 06:14:17;;;;;;;19.50;9.10;;;1.80;99.90;;;;;;4191981;28;20465;-56
2020/12/11 06:16:20;;;;;;;17.60;9.10;;;1.80;99.90;;;;;;4188015;28;20462;-56
2020/12/11 06:18:26;;;;;;;21.17;9.47;;;1.80;99.90;;;;;;4188495;28;20485;-57
2020/12/11 06:20:28;;;;;;;20.20;10.20;;;1.70;99.90;;;;;;4189099;28;20976;-56
2020/12/11 06:22:30;;;;;;;19.33;8.70;;;1.70;99.90;;;;;;4188681;28;20469;-57
2020/12/11 06:24:31;;;;;;;17.07;9.27;;;1.80;99.90;;;;;;4187710;28;20479;-57
2020/12/11 06:26:34;;;;;;;17.73;9.40;;;1.80;99.90;;;;;;4188302;28;20506;-57
2020/12/11 06:28:41;;;;;;;19.47;10.20;;;1.80;99.90;;;;;;4189591;28;20936;-57
2020/12/11 06:30:53;;;;;;;18.33;9.00;;;1.80;99.90;;;;;;4188137;28;20544;-57
2020/12/11 06:32:55;;;;;;;16.80;8.50;;;1.80;99.90;;;;;;4190380;28;20986;-57
2020/12/11 06:35:10;;;;;;;17.63;8.77;;;1.80;99.90;;;;;;4188261;28;20478;-57
2020/12/11 06:37:11;;;;;;;22.20;10.50;;;1.80;99.90;;;;;;4188240;28;20470;-57
2020/12/11 06:39:12;;;;;;;17.03;9.57;;;1.80;99.90;;;;;;4187349;28;20475;-57
2020/12/11 06:41:15;;;;;;;20.90;10.97;;;1.80;99.90;;;;;;4187527;28;20468;-57
2020/12/11 06:43:39;;;;;;;19.73;10.00;;;1.90;99.90;;;;;;4187955;28;20933;-57
2020/12/11 06:45:40;;;;;;;19.63;10.10;;;1.90;99.90;;;;;;4188132;28;20478;-57
2020/12/11 06:47:48;;;;;;;19.17;9.70;;;1.90;99.90;;;;;;4188146;28;20552;-57
2020/12/11 06:50:06;;;;;;;20.30;10.00;;;1.90;99.90;;;;;;4188192;28;20471;-57
2020/12/11 06:52:14;;;;;;;20.57;10.80;;;1.90;99.90;;;;;;4188427;28;20989;-57
2020/12/11 06:54:50;;;;;;;22.43;10.57;;;1.90;99.90;;;;;;4188645;28;20504;-57
2020/12/11 06:56:53;;;;;;;21.50;10.60;;;1.90;99.90;;;;;;4189530;28;20469;-58
2020/12/11 06:59:18;;;;;;;20.73;10.17;;;1.90;99.90;;;;;;4189355;28;20490;-57
2020/12/11 07:01:19;;;;;;;20.00;9.13;;;1.80;99.90;;;;;;4189223;28;20481;-57
2020/12/11 07:03:25;;;;;;;21.73;9.57;;;1.80;99.90;;;;;;4190504;28;20476;-57
2020/12/11 07:05:26;;;;;;;20.23;10.37;;;1.80;99.90;;;;;;4188496;28;20463;-57
2020/12/11 07:07:30;;;;;;;20.97;9.87;;;1.80;99.90;;;;;;4188028;28;20499;-56
2020/12/11 07:09:37;;;;;;;20.90;9.90;;;1.80;99.90;;;;;;4188921;28;20492;-56
2020/12/11 07:11:39;;;;;;;20.70;9.90;;;1.80;99.90;;;;;;4188503;28;21117;-57
2020/12/11 07:13:48;;;;;;;21.40;9.67;;;1.90;99.90;;;;;;4188813;28;21177;-56
2020/12/11 07:15:59;;;;;;;24.40;10.60;;;1.90;99.90;;;;;;4188653;28;20505;-56
2020/12/11 07:18:00;;;;;;;21.63;10.20;;;1.90;99.90;;;;;;4187534;28;20471;-56
2020/12/11 07:20:02;;;;;;;18.73;10.00;;;2.00;99.90;;;;;;4188765;28;20577;-56
2020/12/11 07:22:08;;;;;;;20.70;10.40;;;2.00;99.90;;;;;;4189045;28;20467;-57
2020/12/11 07:24:10;;;;;;;20.07;10.50;;;2.00;99.90;;;;;;4187776;28;20621;-56
2020/12/11 07:26:11;;;;;;;23.47;10.90;;;2.00;99.90;;;;;;4191209;28;20490;-56
2020/12/11 07:28:13;;;;;;;23.17;10.67;;;2.00;99.90;;;;;;4191210;28;20473;-56
2020/12/11 07:30:18;;;;;;;23.07;10.47;;;2.00;99.90;;;;;;4191592;28;20463;-56
2020/12/11 07:32:21;;;;;;;23.43;11.33;;;2.00;99.90;;;;;;4190061;28;20480;-57
2020/12/11 07:34:26;;;;;;;25.47;13.90;;;2.00;99.90;;;;;;4189498;28;21733;-57
2020/12/11 07:36:28;;;;;;;24.27;12.43;;;2.00;99.90;;;;;;4189742;28;20220;-56
2020/12/11 07:38:30;;;;;;;27.00;12.73;;;2.10;99.90;;;;;;4190811;28;20933;-56
2020/12/11 07:40:31;;;;;;;23.50;11.43;;;2.10;99.90;;;;;;4188506;28;20473;-56
2020/12/11 07:42:34;;;;;;;28.45;14.70;;;2.10;99.90;;;;;;4191164;28;20474;-56
2020/12/11 07:44:37;;;;;;;24.40;12.00;;;2.20;99.90;;;;;;4191636;28;20220;-56
2020/12/11 07:46:42;;;;;;;25.73;11.20;;;2.20;99.90;;;;;;4190572;28;20485;-55
2020/12/11 07:48:49;;;;;;;24.67;11.30;;;2.20;99.90;;;;;;4191843;28;20476;-56
2020/12/11 07:50:50;;;;;;;25.57;11.90;;;2.30;99.90;;;;;;4190034;28;20471;-56
2020/12/11 07:52:53;;;;;;;27.08;13.68;;;2.30;99.90;;;;;;4193959;28;20978;-56
2020/12/11 07:54:54;;;;;;;25.27;11.93;;;2.30;99.90;;;;;;4193923;28;20217;-56
2020/12/11 07:57:10;;;;;;;23.87;11.70;;;2.30;99.90;;;;;;4192003;28;20545;-56
2020/12/11 07:59:13;;;;;;;26.67;12.30;;;2.30;99.90;;;;;;4191321;28;20669;-56
2020/12/11 08:01:14;;;;;;;26.80;13.40;;;2.30;99.90;;;;;;4192590;28;20470;-56
2020/12/11 08:03:15;;;;;;;28.43;12.37;;;2.30;99.90;;;;;;4191968;28;20210;-56
2020/12/11 08:05:18;;;;;;;30.23;14.82;;;2.30;99.90;;;;;;4189336;28;20454;-56
2020/12/11 08:07:23;;;;;;;28.00;13.63;;;2.30;99.90;;;;;;4190627;28;20232;-56
2020/12/11 08:09:30;;;;;;;25.27;12.77;;;2.30;99.90;;;;;;4195364;28;20548;-56
2020/12/11 08:11:31;;;;;;;28.87;12.73;;;2.30;99.90;;;;;;4189511;28;20949;-56
2020/12/11 08:13:33;;;;;;;28.33;12.27;;;2.30;99.90;;;;;;4193125;28;20477;-57
2020/12/11 08:15:35;;;;;;;29.77;12.73;;;2.30;99.90;;;;;;4189502;28;21098;-56
2020/12/11 08:17:37;;;;;;;27.80;12.77;;;2.30;99.90;;;;;;4192279;28;20542;-56
2020/12/11 08:19:38;;;;;;;27.87;12.73;;;2.30;99.90;;;;;;4188826;28;20473;-57
2020/12/11 08:21:41;;;;;;;26.00;12.33;;;2.20;99.90;;;;;;4187997;28;20486;-58
2020/12/11 08:23:43;;;;;;;28.83;12.70;;;2.20;99.90;;;;;;4190858;28;20482;-58
2020/12/11 08:25:44;;;;;;;26.63;12.33;;;2.30;99.90;;;;;;4185514;28;21264;-57
2020/12/11 08:27:46;;;;;;;28.70;15.68;;;2.30;99.90;;;;;;4187390;28;20452;-57
2020/12/11 08:30:05;;;;;;;28.00;12.87;;;2.30;99.90;;;;;;4187670;28;20251;-55
2020/12/11 08:32:06;;;;;;;27.20;12.57;;;2.30;99.90;;;;;;4187960;28;21937;-56
2020/12/11 08:34:09;;;;;;;26.37;12.57;;;2.30;99.90;;;;;;4190699;28;20482;-55
2020/12/11 08:36:25;;;;;;;26.52;13.48;;;2.30;99.90;;;;;;4192213;28;20836;-56
2020/12/11 08:38:27;;;;;;;29.85;16.05;;;2.40;99.90;;;;;;4191803;28;20470;-56
2020/12/11 08:40:30;;;;;;;30.15;16.60;;;2.50;99.90;;;;;;4189448;28;20456;-56
2020/12/11 08:42:40;;;;;;;27.33;13.77;;;2.60;99.90;;;;;;4193033;28;20313;-56
2020/12/11 08:47:17;;;;;;;28.77;13.37;;;2.60;99.90;;;;;;4185331;28;20803;-56
2020/12/11 08:49:23;;;;;;;26.33;12.47;;;2.70;99.90;;;;;;4187030;28;21195;-56
2020/12/11 08:51:24;;;;;;;26.10;13.07;;;2.70;99.90;;;;;;4189239;28;20468;-56
2020/12/11 08:53:28;;;;;;;25.33;11.73;;;2.70;99.90;;;;;;4194607;28;20959;-56
2020/12/11 08:55:30;;;;;;;31.93;13.80;;;2.80;99.90;;;;;;4191920;28;20483;-56
2020/12/11 08:57:32;;;;;;;29.58;15.45;;;2.80;99.90;;;;;;4189910;28;20468;-56
2020/12/11 08:59:34;;;;;;;26.47;13.47;;;2.80;99.90;;;;;;4190844;28;20236;-56
2020/12/11 09:01:36;;;;;;;28.40;13.80;;;2.80;99.90;;;;;;4192164;28;20479;-56
2020/12/11 09:03:37;;;;;;;26.67;13.30;;;2.80;99.90;;;;;;4188589;28;20482;-58
2020/12/11 09:05:38;;;;;;;42.70;22.00;;;2.90;99.90;;;;;;4191148;28;20460;-58
2020/12/11 09:07:40;;;;;;;35.22;18.98;;;2.90;99.90;;;;;;4191267;28;20454;-57
2020/12/11 09:09:42;;;;;;;30.52;17.27;;;3.00;99.90;;;;;;4188924;28;20454;-59
2020/12/11 09:11:43;;;;;;;30.85;16.85;;;3.20;99.90;;;;;;4188269;28;20458;-57
2020/12/11 09:13:44;;;;;;;29.93;15.73;;;3.40;99.90;;;;;;4189398;28;20226;-56
2020/12/11 09:15:46;;;;;;;31.10;14.40;;;3.40;99.90;;;;;;4187212;28;20481;-56
2020/12/11 09:17:48;;;;;;;27.57;13.20;;;3.40;99.90;;;;;;4186452;28;20477;-56
2020/12/11 09:19:50;;;;;;;29.95;16.05;;;3.50;99.90;;;;;;4186048;28;20473;-58
2020/12/11 09:21:52;;;;;;;28.48;16.25;;;3.60;99.90;;;;;;4187446;28;20465;-57
2020/12/11 09:23:53;;;;;;;30.80;14.87;;;3.70;99.90;;;;;;4189782;28;20278;-56
2020/12/11 09:25:55;;;;;;;28.10;13.87;;;3.80;99.90;;;;;;4188186;28;20467;-56
2020/12/11 09:27:57;;;;;;;29.27;14.10;;;3.80;99.60;;;;;;4186737;28;20947;-56
2020/12/11 09:30:10;;;;;;;35.70;16.63;;;3.80;99.60;;;;;;4189524;28;20533;-57
2020/12/11 09:32:14;;;;;;;37.03;16.93;;;3.80;99.50;;;;;;4186525;28;21050;-57
2020/12/11 09:34:16;;;;;;;54.73;22.97;;;3.90;99.30;;;;;;4189359;28;21098;-57
2020/12/11 09:36:21;;;;;;;63.40;26.70;;;3.90;99.10;;;;;;4188967;28;20467;-57
2020/12/11 09:38:22;;;;;;;51.70;23.37;;;4.00;99.00;;;;;;4192208;28;20467;-57
2020/12/11 09:40:30;;;;;;;35.93;16.23;;;4.00;99.20;;;;;;4191399;28;22341;-57
2020/12/11 09:42:49;;;;;;;29.37;14.80;;;4.00;98.80;;;;;;4189045;28;20525;-57
2020/12/11 09:45:01;;;;;;;29.03;13.30;;;4.00;98.70;;;;;;4188694;28;20552;-57
2020/12/11 09:47:23;;;;;;;27.73;15.20;;;4.00;98.40;;;;;;4184062;28;20596;-57
2020/12/11 09:49:34;;;;;;;26.77;15.85;;;4.00;98.40;;;;;;4186010;28;20547;-57
2020/12/11 09:54:08;;;;;;;39.73;18.83;;;4.10;98.00;;;;;;4186436;28;20240;-58
2020/12/11 09:56:09;;;;;;;58.60;28.35;;;4.20;98.10;;;;;;4189201;28;21440;-57
2020/12/11 09:58:12;;;;;;;52.43;25.40;;;4.30;97.60;;;;;;4187146;28;20214;-58
2020/12/11 10:00:13;;;;;;;52.53;24.53;;;4.40;97.40;;;;;;4186037;28;20796;-57
2020/12/11 10:02:22;;;;;;;39.03;21.00;;;4.50;97.50;;;;;;4185699;28;20920;-57
2020/12/11 10:04:23;;;;;;;35.20;16.33;;;4.60;97.00;;;;;;4188033;28;20937;-57
2020/12/11 10:06:27;;;;;;;27.73;13.40;;;4.50;96.40;;;;;;4191623;28;20555;-57
2020/12/11 10:08:29;;;;;;;28.30;12.83;;;4.50;96.50;;;;;;4190168;28;20472;-56
2020/12/11 10:10:30;;;;;;;24.50;11.50;;;4.50;96.70;;;;;;4191488;28;20859;-57
2020/12/11 10:12:31;;;;;;;28.60;13.63;;;4.50;96.70;;;;;;4189195;28;20485;-57
2020/12/11 10:14:36;;;;;;;27.83;15.65;;;4.60;96.50;;;;;;4186861;28;20459;-57
2020/12/11 10:16:37;;;;;;;40.72;21.13;;;4.70;96.40;;;;;;4186957;28;20485;-57
2020/12/11 10:18:39;;;;;;;34.50;17.87;;;4.70;96.80;;;;;;4186091;28;20210;-57
2020/12/11 10:20:41;;;;;;;28.90;14.30;;;4.70;96.10;;;;;;4188175;28;20487;-62
2020/12/11 10:22:43;;;;;;;26.63;13.50;;;4.70;96.10;;;;;;4188623;28;20506;-57
2020/12/11 10:24:45;;;;;;;24.20;12.53;;;4.70;96.00;;;;;;4185714;28;20533;-56
2020/12/11 10:26:47;;;;;;;30.90;15.50;;;4.70;96.10;;;;;;4184388;28;20576;-57
2020/12/11 10:28:48;;;;;;;40.67;19.47;;;4.60;96.10;;;;;;4188004;28;20482;-57
2020/12/11 10:30:51;;;;;;;69.10;33.77;;;4.60;96.30;;;;;;4188726;28;20494;-57
2020/12/11 10:32:52;;;;;;;55.20;25.57;;;4.60;96.30;;;;;;4189074;28;20459;-57
2020/12/11 10:34:53;;;;;;;67.37;30.90;;;4.60;96.30;;;;;;4188070;28;20479;-57
2020/12/11 10:36:54;;;;;;;50.83;24.03;;;4.70;96.50;;;;;;4186651;28;20464;-57
2020/12/11 10:38:56;;;;;;;46.33;22.73;;;4.70;96.50;;;;;;4187084;28;20470;-57